Terminal Aerodrome Forecast
Issued by NWS Boston, MA

Home | Current Version | Previous Version | Text Only | Print | Product List | Glossary Off
Versions: 1 2 3 4 5 6 7 8 9 10 11 12 13 14 15 16 17 18 19 20 21 22 23 24 25 26 27 28 29 30 31 32 33 34 35 36 37
000 FTUS41 KBOX 032326 TAFORH TAF KORH 032326Z 0400/0424 21009KT P6SM FEW060 FM040500 23006KT P6SM VCTS SCT060CB FM041200 25007KT P6SM VCSH BKN045 FM041700 23010G17KT P6SM VCSH BKN060=

USA.gov is the U.S. government's official web portal to all federal, state and local government web resources and services.